sensor_id;sensor_type;location;lat;lon;timestamp;temperature;humidity
16283;DHT22;8249;48.708;9.030;2024-01-25T00:01:15;9.30;99.90
16283;DHT22;8249;48.708;9.030;2024-01-25T00:03:42;9.30;99.90
16283;DHT22;8249;48.708;9.030;2024-01-25T00:06:10;9.30;99.90
16283;DHT22;8249;48.708;9.030;2024-01-25T00:08:37;9.30;99.90
16283;DHT22;8249;48.708;9.030;2024-01-25T00:11:04;9.30;99.90
16283;DHT22;8249;48.708;9.030;2024-01-25T00:13:32;9.30;99.90
16283;DHT22;8249;48.708;9.030;2024-01-25T00:15:59;9.40;99.90
16283;DHT22;8249;48.708;9.030;2024-01-25T00:18:26;9.40;99.90
16283;DHT22;8249;48.708;9.030;2024-01-25T00:20:55;9.30;99.90
16283;DHT22;8249;48.708;9.030;2024-01-25T00:23:23;9.40;99.90
16283;DHT22;8249;48.708;9.030;2024-01-25T00:25:50;9.40;99.90
16283;DHT22;8249;48.708;9.030;2024-01-25T00:28:23;9.40;99.90
16283;DHT22;8249;48.708;9.030;2024-01-25T00:30:50;9.50;99.90
16283;DHT22;8249;48.708;9.030;2024-01-25T00:33:17;9.50;99.90
16283;DHT22;8249;48.708;9.030;2024-01-25T00:35:45;9.50;99.90
16283;DHT22;8249;48.708;9.030;2024-01-25T00:38:12;9.50;99.90
16283;DHT22;8249;48.708;9.030;2024-01-25T00:40:41;9.50;99.90
16283;DHT22;8249;48.708;9.030;2024-01-25T00:43:09;9.50;99.90
16283;DHT22;8249;48.708;9.030;2024-01-25T00:45:36;9.50;99.90
16283;DHT22;8249;48.708;9.030;2024-01-25T00:48:04;9.50;99.90
16283;DHT22;8249;48.708;9.030;2024-01-25T00:50:32;9.50;99.90
16283;DHT22;8249;48.708;9.030;2024-01-25T00:52:59;9.50;99.90
16283;DHT22;8249;48.708;9.030;2024-01-25T00:55:27;9.50;99.90
16283;DHT22;8249;48.708;9.030;2024-01-25T00:57:55;9.50;99.90
16283;DHT22;8249;48.708;9.030;2024-01-25T01:00:23;9.60;99.90
16283;DHT22;8249;48.708;9.030;2024-01-25T01:02:50;9.60;99.90
16283;DHT22;8249;48.708;9.030;2024-01-25T01:05:19;9.60;99.90
16283;DHT22;8249;48.708;9.030;2024-01-25T01:07:46;9.60;99.90
16283;DHT22;8249;48.708;9.030;2024-01-25T01:10:13;9.50;99.90
16283;DHT22;8249;48.708;9.030;2024-01-25T01:12:40;9.40;99.90
16283;DHT22;8249;48.708;9.030;2024-01-25T01:15:09;9.40;99.90
16283;DHT22;8249;48.708;9.030;2024-01-25T01:17:36;9.40;99.90
16283;DHT22;8249;48.708;9.030;2024-01-25T01:20:03;9.30;99.90
16283;DHT22;8249;48.708;9.030;2024-01-25T01:22:30;9.30;99.90
16283;DHT22;8249;48.708;9.030;2024-01-25T01:24:57;9.20;99.90
16283;DHT22;8249;48.708;9.030;2024-01-25T01:27:24;9.20;99.90
16283;DHT22;8249;48.708;9.030;2024-01-25T01:29:51;9.20;99.90
16283;DHT22;8249;48.708;9.030;2024-01-25T01:32:19;9.20;99.90
16283;DHT22;8249;48.708;9.030;2024-01-25T01:34:46;9.20;99.90
16283;DHT22;8249;48.708;9.030;2024-01-25T01:37:13;9.20;99.90
16283;DHT22;8249;48.708;9.030;2024-01-25T01:39:40;9.20;99.90
16283;DHT22;8249;48.708;9.030;2024-01-25T01:42:06;9.30;99.90
16283;DHT22;8249;48.708;9.030;2024-01-25T01:44:34;9.20;99.90
16283;DHT22;8249;48.708;9.030;2024-01-25T01:47:00;9.30;99.90
16283;DHT22;8249;48.708;9.030;2024-01-25T01:49:29;9.20;99.90
16283;DHT22;8249;48.708;9.030;2024-01-25T01:51:56;9.30;99.90
16283;DHT22;8249;48.708;9.030;2024-01-25T01:54:23;9.20;99.90
16283;DHT22;8249;48.708;9.030;2024-01-25T01:56:51;9.20;99.90
16283;DHT22;8249;48.708;9.030;2024-01-25T01:59:19;9.30;99.90
16283;DHT22;8249;48.708;9.030;2024-01-25T02:01:46;9.30;99.90
16283;DHT22;8249;48.708;9.030;2024-01-25T02:04:13;9.30;99.90
16283;DHT22;8249;48.708;9.030;2024-01-25T02:06:42;9.20;99.90
16283;DHT22;8249;48.708;9.030;2024-01-25T02:09:09;9.30;99.90
16283;DHT22;8249;48.708;9.030;2024-01-25T02:11:36;9.20;99.90
16283;DHT22;8249;48.708;9.030;2024-01-25T02:14:03;9.20;99.90
16283;DHT22;8249;48.708;9.030;2024-01-25T02:16:30;9.20;99.90
16283;DHT22;8249;48.708;9.030;2024-01-25T02:18:57;9.20;99.90
16283;DHT22;8249;48.708;9.030;2024-01-25T02:21:24;9.30;99.90
16283;DHT22;8249;48.708;9.030;2024-01-25T02:23:52;9.30;99.90
16283;DHT22;8249;48.708;9.030;2024-01-25T02:26:19;9.30;99.90
16283;DHT22;8249;48.708;9.030;2024-01-25T02:28:46;9.10;99.90
16283;DHT22;8249;48.708;9.030;2024-01-25T02:31:13;9.20;99.90
16283;DHT22;8249;48.708;9.030;2024-01-25T02:33:40;9.20;99.90
16283;DHT22;8249;48.708;9.030;2024-01-25T02:36:07;9.20;99.90
16283;DHT22;8249;48.708;9.030;2024-01-25T02:38:34;9.20;99.90
16283;DHT22;8249;48.708;9.030;2024-01-25T02:41:02;9.20;99.90
16283;DHT22;8249;48.708;9.030;2024-01-25T02:43:30;9.20;99.90
16283;DHT22;8249;48.708;9.030;2024-01-25T02:45:57;9.10;99.90
16283;DHT22;8249;48.708;9.030;2024-01-25T02:48:25;9.10;99.90
16283;DHT22;8249;48.708;9.030;2024-01-25T02:50:51;9.00;99.90
16283;DHT22;8249;48.708;9.030;2024-01-25T02:53:18;8.90;99.90
16283;DHT22;8249;48.708;9.030;2024-01-25T02:55:45;8.90;99.90
16283;DHT22;8249;48.708;9.030;2024-01-25T02:58:13;8.90;99.90
16283;DHT22;8249;48.708;9.030;2024-01-25T03:00:40;8.90;99.90
16283;DHT22;8249;48.708;9.030;2024-01-25T03:03:08;8.90;99.90
16283;DHT22;8249;48.708;9.030;2024-01-25T03:05:34;8.80;99.90
16283;DHT22;8249;48.708;9.030;2024-01-25T03:08:01;8.80;99.90
16283;DHT22;8249;48.708;9.030;2024-01-25T03:10:29;8.80;99.90
16283;DHT22;8249;48.708;9.030;2024-01-25T03:12:55;8.80;99.90
16283;DHT22;8249;48.708;9.030;2024-01-25T03:15:24;8.80;99.90
16283;DHT22;8249;48.708;9.030;2024-01-25T03:17:50;8.80;99.90
16283;DHT22;8249;48.708;9.030;2024-01-25T03:20:17;8.80;99.90
16283;DHT22;8249;48.708;9.030;2024-01-25T03:22:44;8.80;99.90
16283;DHT22;8249;48.708;9.030;2024-01-25T03:25:11;8.80;99.90
16283;DHT22;8249;48.708;9.030;2024-01-25T03:27:38;8.80;99.90
16283;DHT22;8249;48.708;9.030;2024-01-25T03:30:06;8.80;99.90
16283;DHT22;8249;48.708;9.030;2024-01-25T03:32:35;8.70;99.90
16283;DHT22;8249;48.708;9.030;2024-01-25T03:35:02;8.70;99.90
16283;DHT22;8249;48.708;9.030;2024-01-25T03:37:29;8.70;99.90
16283;DHT22;8249;48.708;9.030;2024-01-25T03:39:55;8.70;99.90
16283;DHT22;8249;48.708;9.030;2024-01-25T03:42:22;8.70;99.90
16283;DHT22;8249;48.708;9.030;2024-01-25T03:44:49;8.60;99.90
16283;DHT22;8249;48.708;9.030;2024-01-25T03:47:16;8.70;99.90
16283;DHT22;8249;48.708;9.030;2024-01-25T03:49:45;8.70;99.90
16283;DHT22;8249;48.708;9.030;2024-01-25T03:52:12;8.70;99.90
16283;DHT22;8249;48.708;9.030;2024-01-25T03:54:39;8.60;99.90
16283;DHT22;8249;48.708;9.030;2024-01-25T03:57:06;8.60;99.90
16283;DHT22;8249;48.708;9.030;2024-01-25T03:59:33;8.70;99.90
16283;DHT22;8249;48.708;9.030;2024-01-25T04:02:00;8.70;99.90
16283;DHT22;8249;48.708;9.030;2024-01-25T04:04:27;8.60;99.90
16283;DHT22;8249;48.708;9.030;2024-01-25T04:06:55;8.70;99.90
16283;DHT22;8249;48.708;9.030;2024-01-25T04:09:22;8.60;99.90
16283;DHT22;8249;48.708;9.030;2024-01-25T04:11:49;8.70;99.90
16283;DHT22;8249;48.708;9.030;2024-01-25T04:14:16;8.60;99.90
16283;DHT22;8249;48.708;9.030;2024-01-25T04:16:43;8.60;99.90
16283;DHT22;8249;48.708;9.030;2024-01-25T04:19:12;8.70;99.90
16283;DHT22;8249;48.708;9.030;2024-01-25T04:21:39;8.70;99.90
16283;DHT22;8249;48.708;9.030;2024-01-25T04:24:07;8.70;99.90
16283;DHT22;8249;48.708;9.030;2024-01-25T04:26:34;8.60;99.90
16283;DHT22;8249;48.708;9.030;2024-01-25T04:29:01;8.60;99.90
16283;DHT22;8249;48.708;9.030;2024-01-25T04:31:28;8.70;99.90
16283;DHT22;8249;48.708;9.030;2024-01-25T04:33:54;8.70;99.90
16283;DHT22;8249;48.708;9.030;2024-01-25T04:36:21;8.60;99.90
16283;DHT22;8249;48.708;9.030;2024-01-25T04:38:48;8.60;99.90
16283;DHT22;8249;48.708;9.030;2024-01-25T04:41:16;8.60;99.90
16283;DHT22;8249;48.708;9.030;2024-01-25T04:43:43;8.60;99.90
16283;DHT22;8249;48.708;9.030;2024-01-25T04:46:11;8.60;99.90
16283;DHT22;8249;48.708;9.030;2024-01-25T04:48:38;8.60;99.90
16283;DHT22;8249;48.708;9.030;2024-01-25T04:51:05;8.60;99.90
16283;DHT22;8249;48.708;9.030;2024-01-25T04:53:32;8.50;99.90
16283;DHT22;8249;48.708;9.030;2024-01-25T04:55:59;8.50;99.90
16283;DHT22;8249;48.708;9.030;2024-01-25T04:58:27;8.60;99.90
16283;DHT22;8249;48.708;9.030;2024-01-25T05:00:54;8.50;99.90
16283;DHT22;8249;48.708;9.030;2024-01-25T05:03:21;8.50;99.90
16283;DHT22;8249;48.708;9.030;2024-01-25T05:05:48;8.50;99.90
16283;DHT22;8249;48.708;9.030;2024-01-25T05:08:15;8.50;99.90
16283;DHT22;8249;48.708;9.030;2024-01-25T05:10:42;8.50;99.90
16283;DHT22;8249;48.708;9.030;2024-01-25T05:13:09;8.50;99.90
16283;DHT22;8249;48.708;9.030;2024-01-25T05:15:37;8.40;99.90
16283;DHT22;8249;48.708;9.030;2024-01-25T05:18:05;8.40;99.90
16283;DHT22;8249;48.708;9.030;2024-01-25T05:20:33;8.40;99.90
16283;DHT22;8249;48.708;9.030;2024-01-25T05:23:05;8.30;99.90
16283;DHT22;8249;48.708;9.030;2024-01-25T05:25:32;8.30;99.90
16283;DHT22;8249;48.708;9.030;2024-01-25T05:27:59;8.30;99.90
16283;DHT22;8249;48.708;9.030;2024-01-25T05:30:27;8.30;99.90
16283;DHT22;8249;48.708;9.030;2024-01-25T05:32:55;8.20;99.90
16283;DHT22;8249;48.708;9.030;2024-01-25T05:35:22;8.10;99.90
16283;DHT22;8249;48.708;9.030;2024-01-25T05:37:49;8.10;99.90
16283;DHT22;8249;48.708;9.030;2024-01-25T05:40:17;8.00;99.90
16283;DHT22;8249;48.708;9.030;2024-01-25T05:42:44;7.90;99.90
16283;DHT22;8249;48.708;9.030;2024-01-25T05:45:11;7.80;99.90
16283;DHT22;8249;48.708;9.030;2024-01-25T05:47:38;7.80;99.90
16283;DHT22;8249;48.708;9.030;2024-01-25T05:50:07;7.80;99.90
16283;DHT22;8249;48.708;9.030;2024-01-25T05:52:34;7.70;99.90
16283;DHT22;8249;48.708;9.030;2024-01-25T05:55:03;7.60;99.90
16283;DHT22;8249;48.708;9.030;2024-01-25T05:57:30;7.60;99.90
16283;DHT22;8249;48.708;9.030;2024-01-25T05:59:57;7.60;99.90
16283;DHT22;8249;48.708;9.030;2024-01-25T06:02:24;7.50;99.90
16283;DHT22;8249;48.708;9.030;2024-01-25T06:04:51;7.40;99.90
16283;DHT22;8249;48.708;9.030;2024-01-25T06:07:19;7.40;99.90
16283;DHT22;8249;48.708;9.030;2024-01-25T06:09:47;7.30;99.90
16283;DHT22;8249;48.708;9.030;2024-01-25T06:12:14;7.20;99.90
16283;DHT22;8249;48.708;9.030;2024-01-25T06:14:41;7.20;99.90
16283;DHT22;8249;48.708;9.030;2024-01-25T06:17:08;7.20;99.90
16283;DHT22;8249;48.708;9.030;2024-01-25T06:19:34;7.10;99.90
16283;DHT22;8249;48.708;9.030;2024-01-25T06:22:01;7.10;99.90
16283;DHT22;8249;48.708;9.030;2024-01-25T06:24:30;7.10;99.90
16283;DHT22;8249;48.708;9.030;2024-01-25T06:26:57;7.00;99.90
16283;DHT22;8249;48.708;9.030;2024-01-25T06:29:24;6.90;99.90
16283;DHT22;8249;48.708;9.030;2024-01-25T06:31:51;6.80;99.90
16283;DHT22;8249;48.708;9.030;2024-01-25T06:34:18;6.70;99.90
16283;DHT22;8249;48.708;9.030;2024-01-25T06:36:45;6.50;99.90
16283;DHT22;8249;48.708;9.030;2024-01-25T06:39:12;6.40;99.90
16283;DHT22;8249;48.708;9.030;2024-01-25T06:41:40;6.30;99.90
16283;DHT22;8249;48.708;9.030;2024-01-25T06:44:07;6.30;99.90
16283;DHT22;8249;48.708;9.030;2024-01-25T06:46:35;6.20;99.90
16283;DHT22;8249;48.708;9.030;2024-01-25T06:49:02;6.10;99.90
16283;DHT22;8249;48.708;9.030;2024-01-25T06:51:29;6.10;99.90
16283;DHT22;8249;48.708;9.030;2024-01-25T06:53:56;6.10;99.90
16283;DHT22;8249;48.708;9.030;2024-01-25T06:56:23;6.10;99.90
16283;DHT22;8249;48.708;9.030;2024-01-25T06:58:51;6.10;99.90
16283;DHT22;8249;48.708;9.030;2024-01-25T07:01:20;6.00;99.90
16283;DHT22;8249;48.708;9.030;2024-01-25T07:03:48;5.90;99.90
16283;DHT22;8249;48.708;9.030;2024-01-25T07:06:16;5.80;99.90
16283;DHT22;8249;48.708;9.030;2024-01-25T07:08:43;5.70;99.90
16283;DHT22;8249;48.708;9.030;2024-01-25T07:11:10;5.80;99.90
16283;DHT22;8249;48.708;9.030;2024-01-25T07:13:37;5.80;99.90
16283;DHT22;8249;48.708;9.030;2024-01-25T07:16:06;5.70;99.90
16283;DHT22;8249;48.708;9.030;2024-01-25T07:18:33;5.60;99.90
16283;DHT22;8249;48.708;9.030;2024-01-25T07:21:00;5.60;99.90
16283;DHT22;8249;48.708;9.030;2024-01-25T07:23:29;5.60;99.90
16283;DHT22;8249;48.708;9.030;2024-01-25T07:25:56;5.50;99.90
16283;DHT22;8249;48.708;9.030;2024-01-25T07:28:23;5.50;99.90
16283;DHT22;8249;48.708;9.030;2024-01-25T07:30:50;5.40;99.90
16283;DHT22;8249;48.708;9.030;2024-01-25T07:33:19;5.40;99.90
16283;DHT22;8249;48.708;9.030;2024-01-25T07:35:45;5.40;99.90
16283;DHT22;8249;48.708;9.030;2024-01-25T07:38:13;5.50;99.90
16283;DHT22;8249;48.708;9.030;2024-01-25T07:40:40;5.40;99.90
16283;DHT22;8249;48.708;9.030;2024-01-25T07:43:07;5.40;99.90
16283;DHT22;8249;48.708;9.030;2024-01-25T07:45:34;5.40;99.90
16283;DHT22;8249;48.708;9.030;2024-01-25T07:48:01;5.40;99.90
16283;DHT22;8249;48.708;9.030;2024-01-25T07:50:30;5.50;99.90
16283;DHT22;8249;48.708;9.030;2024-01-25T07:52:57;5.50;99.90
16283;DHT22;8249;48.708;9.030;2024-01-25T07:55:26;5.60;99.90
16283;DHT22;8249;48.708;9.030;2024-01-25T07:57:55;5.70;99.90
16283;DHT22;8249;48.708;9.030;2024-01-25T08:00:22;5.80;99.90
16283;DHT22;8249;48.708;9.030;2024-01-25T08:02:49;5.90;99.90
16283;DHT22;8249;48.708;9.030;2024-01-25T08:05:16;5.90;99.90
16283;DHT22;8249;48.708;9.030;2024-01-25T08:07:44;6.00;99.90
16283;DHT22;8249;48.708;9.030;2024-01-25T08:10:11;6.20;99.90
16283;DHT22;8249;48.708;9.030;2024-01-25T08:12:38;6.40;99.90
16283;DHT22;8249;48.708;9.030;2024-01-25T08:15:09;6.70;99.90
16283;DHT22;8249;48.708;9.030;2024-01-25T08:17:37;6.90;99.90
16283;DHT22;8249;48.708;9.030;2024-01-25T08:20:05;7.20;99.90
16283;DHT22;8249;48.708;9.030;2024-01-25T08:22:32;7.50;99.90
16283;DHT22;8249;48.708;9.030;2024-01-25T08:25:00;7.70;99.90
16283;DHT22;8249;48.708;9.030;2024-01-25T08:27:27;8.00;99.90
16283;DHT22;8249;48.708;9.030;2024-01-25T08:29:54;8.30;99.90
16283;DHT22;8249;48.708;9.030;2024-01-25T08:32:21;8.50;99.90
16283;DHT22;8249;48.708;9.030;2024-01-25T08:34:48;8.70;99.90
16283;DHT22;8249;48.708;9.030;2024-01-25T08:37:15;9.00;99.90
16283;DHT22;8249;48.708;9.030;2024-01-25T08:39:42;9.40;99.90
16283;DHT22;8249;48.708;9.030;2024-01-25T08:42:12;9.90;99.90
16283;DHT22;8249;48.708;9.030;2024-01-25T08:44:39;10.60;99.90
16283;DHT22;8249;48.708;9.030;2024-01-25T08:47:10;11.00;99.90
16283;DHT22;8249;48.708;9.030;2024-01-25T08:49:38;11.70;99.90
16283;DHT22;8249;48.708;9.030;2024-01-25T08:52:05;12.20;99.90
16283;DHT22;8249;48.708;9.030;2024-01-25T08:54:32;12.40;99.90
16283;DHT22;8249;48.708;9.030;2024-01-25T08:56:59;12.80;99.90
16283;DHT22;8249;48.708;9.030;2024-01-25T08:59:27;13.00;99.90
16283;DHT22;8249;48.708;9.030;2024-01-25T09:01:56;12.90;99.90
16283;DHT22;8249;48.708;9.030;2024-01-25T09:04:23;13.30;99.90
16283;DHT22;8249;48.708;9.030;2024-01-25T09:06:50;13.50;99.90
16283;DHT22;8249;48.708;9.030;2024-01-25T09:09:17;13.70;99.90
16283;DHT22;8249;48.708;9.030;2024-01-25T09:11:44;13.80;99.90
16283;DHT22;8249;48.708;9.030;2024-01-25T09:14:11;13.80;99.90
16283;DHT22;8249;48.708;9.030;2024-01-25T09:16:40;13.80;99.90
16283;DHT22;8249;48.708;9.030;2024-01-25T09:19:08;14.20;99.90
16283;DHT22;8249;48.708;9.030;2024-01-25T09:21:37;14.50;99.90
16283;DHT22;8249;48.708;9.030;2024-01-25T09:24:04;15.20;99.90
16283;DHT22;8249;48.708;9.030;2024-01-25T09:26:31;15.50;99.90
16283;DHT22;8249;48.708;9.030;2024-01-25T09:28:58;16.00;99.90
16283;DHT22;8249;48.708;9.030;2024-01-25T09:31:25;16.30;99.90
16283;DHT22;8249;48.708;9.030;2024-01-25T09:33:54;16.60;99.90
16283;DHT22;8249;48.708;9.030;2024-01-25T09:36:21;16.60;99.90
16283;DHT22;8249;48.708;9.030;2024-01-25T09:38:48;16.30;99.90
16283;DHT22;8249;48.708;9.030;2024-01-25T09:41:15;16.20;99.90
16283;DHT22;8249;48.708;9.030;2024-01-25T09:43:42;15.30;99.90
16283;DHT22;8249;48.708;9.030;2024-01-25T09:46:13;15.00;99.90
16283;DHT22;8249;48.708;9.030;2024-01-25T09:48:41;14.60;99.90
16283;DHT22;8249;48.708;9.030;2024-01-25T09:51:11;14.10;99.90
16283;DHT22;8249;48.708;9.030;2024-01-25T09:53:39;13.90;99.90
16283;DHT22;8249;48.708;9.030;2024-01-25T09:56:08;13.80;99.90
16283;DHT22;8249;48.708;9.030;2024-01-25T09:58:39;13.80;99.90
16283;DHT22;8249;48.708;9.030;2024-01-25T10:01:12;13.20;99.90
16283;DHT22;8249;48.708;9.030;2024-01-25T10:03:41;12.90;99.90
16283;DHT22;8249;48.708;9.030;2024-01-25T10:06:10;13.20;99.90
16283;DHT22;8249;48.708;9.030;2024-01-25T10:08:37;13.50;99.90
16283;DHT22;8249;48.708;9.030;2024-01-25T10:11:04;13.60;99.90
16283;DHT22;8249;48.708;9.030;2024-01-25T10:13:31;13.40;99.90
16283;DHT22;8249;48.708;9.030;2024-01-25T10:15:58;13.50;99.90
16283;DHT22;8249;48.708;9.030;2024-01-25T10:18:25;13.40;99.90
16283;DHT22;8249;48.708;9.030;2024-01-25T10:20:53;13.00;99.90
16283;DHT22;8249;48.708;9.030;2024-01-25T10:23:22;12.40;99.90
16283;DHT22;8249;48.708;9.030;2024-01-25T10:25:49;12.40;99.90
16283;DHT22;8249;48.708;9.030;2024-01-25T10:28:16;12.40;99.90
16283;DHT22;8249;48.708;9.030;2024-01-25T10:30:43;12.60;99.90
16283;DHT22;8249;48.708;9.030;2024-01-25T10:33:11;12.50;99.90
16283;DHT22;8249;48.708;9.030;2024-01-25T10:35:40;12.80;99.90
16283;DHT22;8249;48.708;9.030;2024-01-25T10:38:11;13.30;99.90
16283;DHT22;8249;48.708;9.030;2024-01-25T10:40:40;13.80;99.90
16283;DHT22;8249;48.708;9.030;2024-01-25T10:43:07;13.70;99.90
16283;DHT22;8249;48.708;9.030;2024-01-25T10:45:35;14.20;99.90
16283;DHT22;8249;48.708;9.030;2024-01-25T10:48:02;14.60;99.90
16283;DHT22;8249;48.708;9.030;2024-01-25T10:50:29;14.70;99.90
16283;DHT22;8249;48.708;9.030;2024-01-25T10:52:57;15.20;99.90
16283;DHT22;8249;48.708;9.030;2024-01-25T10:55:24;16.00;99.90
16283;DHT22;8249;48.708;9.030;2024-01-25T10:57:53;16.50;99.90
16283;DHT22;8249;48.708;9.030;2024-01-25T11:00:21;16.80;99.90
16283;DHT22;8249;48.708;9.030;2024-01-25T11:02:48;16.70;99.90
16283;DHT22;8249;48.708;9.030;2024-01-25T11:05:17;17.40;99.90
16283;DHT22;8249;48.708;9.030;2024-01-25T11:07:46;17.30;99.90
16283;DHT22;8249;48.708;9.030;2024-01-25T11:10:15;16.40;99.90
16283;DHT22;8249;48.708;9.030;2024-01-25T11:12:50;15.40;99.90
16283;DHT22;8249;48.708;9.030;2024-01-25T11:15:21;15.00;99.90
16283;DHT22;8249;48.708;9.030;2024-01-25T11:17:56;15.40;99.90
16283;DHT22;8249;48.708;9.030;2024-01-25T11:20:24;16.00;99.90
16283;DHT22;8249;48.708;9.030;2024-01-25T11:22:58;16.70;99.90
16283;DHT22;8249;48.708;9.030;2024-01-25T11:25:28;16.60;99.90
16283;DHT22;8249;48.708;9.030;2024-01-25T11:27:55;16.60;99.90
16283;DHT22;8249;48.708;9.030;2024-01-25T11:30:25;16.70;99.90
16283;DHT22;8249;48.708;9.030;2024-01-25T11:32:52;16.60;99.90
16283;DHT22;8249;48.708;9.030;2024-01-25T11:35:19;16.60;99.90
16283;DHT22;8249;48.708;9.030;2024-01-25T11:37:48;16.80;99.90
16283;DHT22;8249;48.708;9.030;2024-01-25T11:40:17;16.90;99.90
16283;DHT22;8249;48.708;9.030;2024-01-25T11:42:46;16.80;99.90
16283;DHT22;8249;48.708;9.030;2024-01-25T11:45:14;17.20;99.90
16283;DHT22;8249;48.708;9.030;2024-01-25T11:47:43;17.70;99.90
16283;DHT22;8249;48.708;9.030;2024-01-25T11:50:11;18.00;99.90
16283;DHT22;8249;48.708;9.030;2024-01-25T11:52:39;18.20;99.90
16283;DHT22;8249;48.708;9.030;2024-01-25T11:55:07;18.70;99.90
16283;DHT22;8249;48.708;9.030;2024-01-25T11:57:36;18.90;99.90
16283;DHT22;8249;48.708;9.030;2024-01-25T12:00:05;19.70;99.90
16283;DHT22;8249;48.708;9.030;2024-01-25T12:02:34;20.20;99.90
16283;DHT22;8249;48.708;9.030;2024-01-25T12:05:03;20.50;97.90
16283;DHT22;8249;48.708;9.030;2024-01-25T12:07:31;20.90;96.30
16283;DHT22;8249;48.708;9.030;2024-01-25T12:09:59;21.20;95.80
16283;DHT22;8249;48.708;9.030;2024-01-25T12:12:27;20.50;95.30
16283;DHT22;8249;48.708;9.030;2024-01-25T12:14:58;20.50;95.20
16283;DHT22;8249;48.708;9.030;2024-01-25T12:17:26;20.20;95.70
16283;DHT22;8249;48.708;9.030;2024-01-25T12:19:55;20.40;94.80
16283;DHT22;8249;48.708;9.030;2024-01-25T12:22:23;20.00;94.70
16283;DHT22;8249;48.708;9.030;2024-01-25T12:24:53;20.10;94.90
16283;DHT22;8249;48.708;9.030;2024-01-25T12:27:20;20.40;94.00
16283;DHT22;8249;48.708;9.030;2024-01-25T12:29:48;19.70;94.70
16283;DHT22;8249;48.708;9.030;2024-01-25T12:32:15;18.60;95.80
16283;DHT22;8249;48.708;9.030;2024-01-25T12:34:42;17.40;96.60
16283;DHT22;8249;48.708;9.030;2024-01-25T12:37:09;16.10;98.40
16283;DHT22;8249;48.708;9.030;2024-01-25T12:39:37;16.30;99.20
16283;DHT22;8249;48.708;9.030;2024-01-25T12:42:05;16.80;98.80
16283;DHT22;8249;48.708;9.030;2024-01-25T12:44:32;16.90;98.30
16283;DHT22;8249;48.708;9.030;2024-01-25T12:46:59;16.30;98.90
16283;DHT22;8249;48.708;9.030;2024-01-25T12:49:28;15.90;99.90
16283;DHT22;8249;48.708;9.030;2024-01-25T12:51:55;15.30;99.90
16283;DHT22;8249;48.708;9.030;2024-01-25T12:54:22;15.00;99.90
16283;DHT22;8249;48.708;9.030;2024-01-25T12:56:51;14.80;99.90
16283;DHT22;8249;48.708;9.030;2024-01-25T12:59:18;15.60;99.90
16283;DHT22;8249;48.708;9.030;2024-01-25T13:01:45;17.20;99.60
16283;DHT22;8249;48.708;9.030;2024-01-25T13:04:12;18.50;97.60
16283;DHT22;8249;48.708;9.030;2024-01-25T13:06:38;19.50;96.40
16283;DHT22;8249;48.708;9.030;2024-01-25T13:09:05;20.10;94.60
16283;DHT22;8249;48.708;9.030;2024-01-25T13:11:33;20.40;93.00
16283;DHT22;8249;48.708;9.030;2024-01-25T13:14:02;20.20;93.20
16283;DHT22;8249;48.708;9.030;2024-01-25T13:16:29;20.50;93.20
16283;DHT22;8249;48.708;9.030;2024-01-25T13:18:56;20.70;92.70
16283;DHT22;8249;48.708;9.030;2024-01-25T13:21:23;21.20;92.00
16283;DHT22;8249;48.708;9.030;2024-01-25T13:23:50;22.00;91.10
16283;DHT22;8249;48.708;9.030;2024-01-25T13:26:17;22.30;90.40
16283;DHT22;8249;48.708;9.030;2024-01-25T13:28:44;22.50;88.50
16283;DHT22;8249;48.708;9.030;2024-01-25T13:31:12;22.90;87.10
16283;DHT22;8249;48.708;9.030;2024-01-25T13:33:39;23.00;86.00
16283;DHT22;8249;48.708;9.030;2024-01-25T13:36:06;22.40;85.50
16283;DHT22;8249;48.708;9.030;2024-01-25T13:38:36;20.40;88.70
16283;DHT22;8249;48.708;9.030;2024-01-25T13:41:03;19.00;90.70
16283;DHT22;8249;48.708;9.030;2024-01-25T13:43:30;18.30;91.50
16283;DHT22;8249;48.708;9.030;2024-01-25T13:45:57;18.10;92.00
16283;DHT22;8249;48.708;9.030;2024-01-25T13:48:26;17.20;93.00
16283;DHT22;8249;48.708;9.030;2024-01-25T13:50:53;16.90;93.70
16283;DHT22;8249;48.708;9.030;2024-01-25T13:53:20;16.40;94.10
16283;DHT22;8249;48.708;9.030;2024-01-25T13:55:47;16.20;94.90
16283;DHT22;8249;48.708;9.030;2024-01-25T13:58:15;15.90;95.40
16283;DHT22;8249;48.708;9.030;2024-01-25T14:00:42;16.20;95.70
16283;DHT22;8249;48.708;9.030;2024-01-25T14:03:09;16.60;95.70
16283;DHT22;8249;48.708;9.030;2024-01-25T14:05:37;16.90;95.10
16283;DHT22;8249;48.708;9.030;2024-01-25T14:08:05;17.80;94.60
16283;DHT22;8249;48.708;9.030;2024-01-25T14:10:32;17.70;93.90
16283;DHT22;8249;48.708;9.030;2024-01-25T14:12:59;17.30;94.30
16283;DHT22;8249;48.708;9.030;2024-01-25T14:15:26;17.00;94.50
16283;DHT22;8249;48.708;9.030;2024-01-25T14:17:53;16.40;94.90
16283;DHT22;8249;48.708;9.030;2024-01-25T14:20:20;15.80;96.00
16283;DHT22;8249;48.708;9.030;2024-01-25T14:22:50;15.10;97.10
16283;DHT22;8249;48.708;9.030;2024-01-25T14:25:17;14.60;97.90
16283;DHT22;8249;48.708;9.030;2024-01-25T14:27:44;14.40;98.90
16283;DHT22;8249;48.708;9.030;2024-01-25T14:30:14;14.00;99.30
16283;DHT22;8249;48.708;9.030;2024-01-25T14:32:41;13.60;99.90
16283;DHT22;8249;48.708;9.030;2024-01-25T14:35:08;13.40;99.90
16283;DHT22;8249;48.708;9.030;2024-01-25T14:37:35;13.20;99.90
16283;DHT22;8249;48.708;9.030;2024-01-25T14:40:05;12.90;99.90
16283;DHT22;8249;48.708;9.030;2024-01-25T14:42:32;12.80;99.90
16283;DHT22;8249;48.708;9.030;2024-01-25T14:44:59;12.60;99.90
16283;DHT22;8249;48.708;9.030;2024-01-25T14:47:25;12.50;99.90
16283;DHT22;8249;48.708;9.030;2024-01-25T14:49:52;12.40;99.90
16283;DHT22;8249;48.708;9.030;2024-01-25T14:52:19;12.20;99.90
16283;DHT22;8249;48.708;9.030;2024-01-25T14:54:46;12.00;99.90
16283;DHT22;8249;48.708;9.030;2024-01-25T14:57:14;12.00;99.90
16283;DHT22;8249;48.708;9.030;2024-01-25T14:59:42;11.90;99.90
16283;DHT22;8249;48.708;9.030;2024-01-25T15:02:09;11.80;99.90
16283;DHT22;8249;48.708;9.030;2024-01-25T15:04:36;11.70;99.90
16283;DHT22;8249;48.708;9.030;2024-01-25T15:07:03;11.50;99.90
16283;DHT22;8249;48.708;9.030;2024-01-25T15:09:31;11.50;99.90
16283;DHT22;8249;48.708;9.030;2024-01-25T15:11:58;11.40;99.90
16283;DHT22;8249;48.708;9.030;2024-01-25T15:14:26;11.30;99.90
16283;DHT22;8249;48.708;9.030;2024-01-25T15:16:53;11.30;99.90
16283;DHT22;8249;48.708;9.030;2024-01-25T15:19:20;11.20;99.90
16283;DHT22;8249;48.708;9.030;2024-01-25T15:21:47;11.10;99.90
16283;DHT22;8249;48.708;9.030;2024-01-25T15:24:14;11.10;99.90
16283;DHT22;8249;48.708;9.030;2024-01-25T15:26:42;11.10;99.90
16283;DHT22;8249;48.708;9.030;2024-01-25T15:29:09;11.00;99.90
16283;DHT22;8249;48.708;9.030;2024-01-25T15:31:37;11.00;99.90
16283;DHT22;8249;48.708;9.030;2024-01-25T15:34:04;11.00;99.90
16283;DHT22;8249;48.708;9.030;2024-01-25T15:36:31;11.00;99.90
16283;DHT22;8249;48.708;9.030;2024-01-25T15:38:58;11.00;99.90
16283;DHT22;8249;48.708;9.030;2024-01-25T15:41:25;11.00;99.90
16283;DHT22;8249;48.708;9.030;2024-01-25T15:43:54;10.90;99.90
16283;DHT22;8249;48.708;9.030;2024-01-25T15:46:21;10.90;99.90
16283;DHT22;8249;48.708;9.030;2024-01-25T15:48:49;10.80;99.90
16283;DHT22;8249;48.708;9.030;2024-01-25T15:51:19;10.90;99.90
16283;DHT22;8249;48.708;9.030;2024-01-25T15:53:46;10.80;99.90
16283;DHT22;8249;48.708;9.030;2024-01-25T15:56:13;10.80;99.90